Laval-Des-Rapides, Canada
Current Conditions -  °F | °C
As of 7:00 PM on Friday 24 Oct 2014 (Local Time) from CYUL Reporting Station
Broken Clouds Broken Clouds  
Wind Chill: 52°   Ceiling: 11000
Heat Index: 52°   Visibility: 15mi
Dew Point: 41°   Wind: 10mph
Humidity: 67%   Direction: 210°SSW
Pressure: 29.83"   Gusts: NA
Location:  45.55°N, 73.7°W
Report Text: CYUL 242300Z 21009KT 15SM BKN110 11/05 A2983 RMK AC6 SLP102
Loading
Personal Weather Stations






























Interactive Weather Map
Tropical Storm Tracking
New forecast layout! Learn more

10-Day Weather Forecast

Advertisements
Track Severe Weather on mobile